Terminal Aerodrome Forecast
Issued by NWS Charleston, WV

Current Version | Previous Version | Graphics & Text | Print | Product List | Glossary Off
Versions: 1 2 3 4 5 6 7 8 9 10 11 12 13 14 15 16 17 18 19 20 21 22 23 24

000
FTUS41 KRLX 011100
TAFPKB
TAF
KPKB 011120Z 0112/0212 00000KT 1/4SM FG OVC001
      TEMPO 0112/0113 3SM BR BKN002
     FM011300 00000KT 4SM BR SCT002 BKN120
     FM011400 00000KT P6SM BKN120
     FM011800 14004KT P6SM VCTS BKN060CB
     FM012100 12004KT P6SM BKN090
     FM020000 00000KT P6SM BKN100
     FM020300 00000KT 6SM BR BKN080
     FM020500 00000KT 4SM BR BKN090
     FM020700 00000KT 1/2SM FG BKN001
     FM020900 00000KT 1/4SM FG BKN001=

USA.gov is the U.S. government's official web portal to all federal, state and local government web resources and services.